Terminal Aerodrome Forecast
Issued by NWS Mobile, AL

Home | Current Version | Previous Version | Text Only | Print | Product List | Glossary On
Versions: 1 2 3 4 5 6 7 8 9 10 11 12 13 14 15 16 17 18 19 20 21 22 23 24 25 26 27 28 29 30 31 32 33 34 35 36 37 38 39 40 41 42 43 44
000
FTUS44 KMOB 281736
TAFMOB
TAF
KMOB 281736Z 2818/2918 21007KT P6SM BKN035
     FM290200 16004KT 4SM BR BKN007
     FM290900 14003KT 1SM BR OVC004
      TEMPO 2909/2913 1/2SM FG VV002=

USA.gov is the U.S. government's official web portal to all federal, state and local government web resources and services.